Meteo Giornale » Osservazioni meteo Italia » Capo Bellavista

ore: 15:55 - Osservazioni Meteo Capo Bellavista
Lat. 39° 56' N Lon. 9° 43' E Alt. 138 metri s.l.m.

sereno Europe/Rome

26 °C

Sereno

Temp. 24 Ore

19 °C

27 °C

Nord

5.5 Km/h

Dew point 19 °C

Umidità 65 %

Visibilità  10 Km

Il sole sorge alle ore 06:27

Il sole tramonta alle ore 20:11

Data e Ora Cielo e Fenomeni T °C DP °C Um. % Pres. hPa Vis. km Vento km/h
Oggi h: 15:55 sereno Sereno 26 19 65 1017 10 N 5.5
Oggi h: 14:55 sereno Sereno 24 16 60 1017 10 N 5.5
Oggi h: 13:55 sereno Sereno 27 16 50 1018 10 N 5.5
Oggi h: 12:55 sereno Sereno 27 16 50 1018 10 N 3.7
Oggi h: 11:55 sereno Sereno 26 15 50 1018 10 N 3.7
Oggi h: 10:55 sereno Sereno 24 7 33 1018 10 N 3.7
Oggi h: 09:55 sereno Sereno 22 7 37 1017 10 N 1.8
Oggi h: 08:55 sereno Sereno 19 6 42 1017 10 N 0
Oggi h: 07:55 sereno Sereno 19 8 48 1017 10 N 5.5
Oggi h: 06:55 sereno Sereno 19 7 45 1017 10 N 5.5
Oggi h: 05:55 sereno Sereno 19 9 52 1018 10 O/SO 14.8
Oggi h: 04:55 sereno Sereno 19 10 55 1018 10 O/SO 16.7
Oggi h: 03:55 sereno Sereno 19 10 55 1018 10 O/SO 13
Oggi h: 02:55 sereno Sereno 19 10 55 1018 10 SO 16.7
Oggi h: 01:55 sereno Sereno 19 10 55 1018 10 O/SO 14.8
Oggi h: 00:55 sereno Sereno 19 10 55 1018 10 O/SO 14.8
Ieri h: 23:55 sereno Sereno 20 11 56 1018 10 O/SO 13
Ieri h: 22:55 sereno Sereno 20 11 56 1018 10 SO 9.3
Ieri h: 21:55 sereno Sereno 19 12 63 1018 10 SO 16.7
Ieri h: 20:55 sereno Sereno 19 15 77 1018 10 SO 16.7
Ieri h: 19:55 sereno Sereno 19 17 88 1018 10 S/SO 16.7
Ieri h: 18:55 sereno Sereno 21 14 64 1018 10 S/SO 18.5